createdAt,value
2023-02-19T07:43:03.919Z,8.50
2023-02-19T07:44:37.897Z,8.20
2023-02-19T07:46:14.267Z,8.30
2023-02-19T07:47:47.374Z,8.30
2023-02-19T07:49:20.592Z,8.30
2023-02-19T07:50:53.994Z,8.30
2023-02-19T07:52:27.108Z,8.40
2023-02-19T07:54:00.408Z,8.30
2023-02-19T07:55:34.162Z,8.30
2023-02-19T08:03:41.475Z,7.60
2023-02-19T08:05:14.539Z,7.70
2023-02-19T08:06:47.665Z,7.60
2023-02-19T08:08:20.852Z,7.50
2023-02-19T08:10:14.027Z,7.30
2023-02-19T08:12:04.602Z,7.40
2023-02-19T08:13:36.706Z,7.30
2023-02-19T08:15:10.236Z,7.40
2023-02-19T08:16:51.003Z,7.40
2023-02-19T08:18:26.314Z,7.20
2023-02-19T08:19:59.384Z,7.10
2023-02-19T08:21:34.280Z,7.10
2023-02-19T08:23:08.535Z,7.10
2023-02-19T08:24:42.958Z,7.20
2023-02-19T08:26:16.032Z,7.00
2023-02-19T08:27:48.229Z,7.20
2023-02-19T08:44:57.309Z,6.60
2023-02-19T08:46:30.395Z,6.60
2023-02-19T08:48:05.423Z,6.50
2023-02-19T08:49:38.564Z,6.40
2023-02-19T08:51:13.297Z,6.40
2023-02-19T08:52:46.572Z,6.40
2023-02-19T08:54:19.716Z,6.40
2023-02-19T08:55:53.435Z,6.10
2023-02-19T08:57:27.149Z,6.10
2023-02-19T08:59:00.268Z,6.10
2023-02-19T09:00:33.489Z,6.20
2023-02-19T09:02:06.576Z,6.10
2023-02-19T09:03:41.494Z,6.10
2023-02-19T09:05:15.142Z,6.10
2023-02-19T09:06:48.215Z,6.00
2023-02-19T09:08:21.354Z,6.10
2023-02-19T09:09:54.478Z,6.00
2023-02-19T09:11:27.602Z,5.90
2023-02-19T09:13:00.914Z,5.80
2023-02-19T09:14:34.494Z,5.80
2023-02-19T09:16:09.198Z,4.90
2023-02-19T09:17:42.370Z,5.50
2023-02-19T09:19:17.241Z,5.60
2023-02-19T09:20:50.425Z,5.40
2023-02-19T09:22:23.662Z,5.80
2023-02-19T09:23:56.790Z,5.30
2023-02-19T09:25:29.882Z,5.40
2023-02-19T09:27:02.938Z,5.20
2023-02-19T09:28:37.221Z,5.40
2023-02-19T09:30:11.071Z,5.30
2023-02-19T09:31:44.323Z,5.30
2023-02-19T09:33:18.129Z,5.30
2023-02-19T09:34:52.584Z,5.20
2023-02-19T09:36:25.702Z,5.30
2023-02-19T09:38:00.576Z,5.40
2023-02-19T09:39:34.342Z,5.30
2023-02-19T09:41:11.175Z,5.20
2023-02-19T09:42:44.901Z,5.00
2023-02-19T09:44:24.932Z,5.00
2023-02-19T09:46:05.332Z,4.60
2023-02-19T09:47:38.909Z,4.80
2023-02-19T09:49:16.119Z,4.10
2023-02-19T09:50:51.039Z,4.60
2023-02-19T09:52:30.062Z,4.50
2023-02-19T09:54:04.236Z,4.50
2023-02-19T09:55:40.779Z,4.50
2023-02-19T09:57:17.461Z,4.30
2023-02-19T09:58:55.271Z,4.30
2023-02-19T10:00:31.039Z,4.30
2023-02-19T10:02:12.801Z,4.40
2023-02-19T10:03:47.713Z,4.60
2023-02-19T10:05:22.361Z,4.70
2023-02-19T10:07:03.412Z,4.90
2023-02-19T10:08:37.840Z,4.60
2023-02-19T10:10:27.776Z,4.70
2023-02-19T10:12:01.259Z,4.70
2023-02-19T10:16:50.155Z,4.60
2023-02-19T10:18:25.487Z,4.80
2023-02-19T10:19:59.623Z,5.00
2023-02-19T10:21:32.762Z,5.10
2023-02-19T10:23:11.448Z,5.00
2023-02-19T10:24:45.724Z,5.10
2023-02-19T10:26:18.871Z,5.30
2023-02-19T10:27:52.025Z,5.30
2023-02-19T10:29:25.136Z,5.60
2023-02-19T10:31:00.259Z,5.60
2023-02-19T10:32:33.420Z,5.70
2023-02-19T10:34:13.841Z,5.90
2023-02-19T10:35:57.416Z,6.00
2023-02-19T10:37:31.126Z,6.00
2023-02-19T10:39:35.419Z,6.00
2023-02-19T10:41:14.349Z,5.90
2023-02-19T10:42:49.171Z,5.60
2023-02-19T10:44:27.334Z,5.60
2023-02-19T10:46:03.348Z,5.70
2023-02-19T10:47:36.569Z,5.50
2023-02-19T10:49:28.057Z,5.70
2023-02-19T10:51:05.057Z,5.90
2023-02-19T10:52:38.280Z,5.70
2023-02-19T10:54:19.979Z,5.90
2023-02-19T10:56:08.353Z,6.10
2023-02-19T10:57:42.109Z,5.80
2023-02-19T10:59:25.725Z,6.00
2023-02-19T11:01:18.562Z,6.30
2023-02-19T11:02:51.931Z,6.10
2023-02-19T11:04:26.521Z,6.10
2023-02-19T11:06:04.237Z,6.30
2023-02-19T11:07:38.469Z,6.70
2023-02-19T11:09:26.353Z,7.20
2023-02-19T11:10:59.444Z,6.90
2023-02-19T11:12:35.029Z,6.50
2023-02-19T11:14:17.794Z,6.10
2023-02-19T11:15:54.270Z,5.80
2023-02-19T11:17:29.740Z,5.70
2023-02-19T11:19:02.825Z,5.60
2023-02-19T11:20:36.582Z,5.70
2023-02-19T11:22:30.103Z,5.80
2023-02-19T11:24:04.032Z,5.70
2023-02-19T11:25:45.505Z,5.70
2023-02-19T11:27:20.513Z,5.50
2023-02-19T11:28:58.048Z,5.50
2023-02-19T11:30:49.154Z,5.70
2023-02-19T11:32:27.402Z,5.80
2023-02-19T11:34:01.839Z,6.10
2023-02-19T11:35:34.911Z,6.10
2023-02-19T11:37:14.556Z,6.10
2023-02-19T11:38:47.722Z,6.10
2023-02-19T11:40:22.845Z,6.00
2023-02-19T11:42:29.699Z,5.80
2023-02-19T11:44:17.192Z,5.60
2023-02-19T11:45:59.155Z,5.50
2023-02-19T11:47:59.820Z,5.50
2023-02-19T11:49:44.164Z,5.60
2023-02-19T11:51:32.235Z,5.50
2023-02-19T11:53:17.911Z,5.40
2023-02-19T11:54:54.621Z,5.50
2023-02-19T11:56:34.100Z,5.50
2023-02-19T11:58:24.409Z,5.50
2023-02-19T12:00:04.596Z,5.70
2023-02-19T12:01:54.761Z,5.60
2023-02-19T12:03:46.569Z,5.80
2023-02-19T12:05:29.724Z,5.70
2023-02-19T12:07:16.542Z,5.80
2023-02-19T12:09:22.676Z,5.80
2023-02-19T12:11:26.164Z,6.00
2023-02-19T12:13:07.464Z,6.20
2023-02-19T12:14:56.836Z,6.40
2023-02-19T12:16:35.278Z,6.20
2023-02-19T12:18:48.338Z,6.10
2023-02-19T12:20:32.344Z,6.20
2023-02-19T12:22:31.899Z,6.30
2023-02-19T12:24:17.786Z,6.20
2023-02-19T12:25:59.063Z,6.40
2023-02-19T12:27:45.427Z,6.50
2023-02-19T12:29:35.273Z,6.50
2023-02-19T12:31:36.224Z,6.70
2023-02-19T12:33:36.245Z,6.60
2023-02-19T12:35:31.515Z,6.30
2023-02-19T12:37:18.279Z,6.30
2023-02-19T12:38:59.055Z,6.40
2023-02-19T12:40:44.964Z,6.30
2023-02-19T12:42:29.419Z,6.10
2023-02-19T12:44:06.768Z,6.20
2023-02-19T12:45:44.339Z,6.30
2023-02-19T12:47:22.747Z,6.80
2023-02-19T12:49:00.465Z,7.60
2023-02-19T12:50:36.465Z,7.90
2023-02-19T12:52:16.578Z,8.00
2023-02-19T12:53:54.677Z,8.20
2023-02-19T12:55:31.001Z,8.30
2023-02-19T12:57:07.624Z,7.90
2023-02-19T12:58:45.392Z,7.50
2023-02-19T13:00:30.941Z,7.60
2023-02-19T13:02:13.262Z,7.30
2023-02-19T13:03:53.741Z,7.40
2023-02-19T13:05:39.797Z,7.90
2023-02-19T13:07:17.977Z,8.80
2023-02-19T13:09:06.400Z,8.30
2023-02-19T13:10:44.189Z,7.70
2023-02-19T13:12:22.724Z,7.90
2023-02-19T13:13:59.733Z,8.50
2023-02-19T13:15:37.733Z,8.70
2023-02-19T13:17:20.952Z,8.40
2023-02-19T13:18:57.750Z,8.00
2023-02-19T13:20:34.656Z,8.10
2023-02-19T13:22:38.429Z,7.90
2023-02-19T13:24:14.816Z,7.90
2023-02-19T13:26:05.437Z,7.90
2023-02-19T13:28:09.984Z,7.60
2023-02-19T13:29:58.145Z,7.50
2023-02-19T13:31:51.381Z,7.40
2023-02-19T13:33:44.237Z,7.30
2023-02-19T13:35:53.747Z,7.40
2023-02-19T13:37:27.738Z,6.80
2023-02-19T13:39:01.192Z,6.70
2023-02-19T13:40:36.432Z,6.50
2023-02-19T13:42:25.840Z,6.70
2023-02-19T13:44:03.805Z,7.10
2023-02-19T13:45:40.947Z,6.90
2023-02-19T13:47:47.960Z,7.20
2023-02-19T13:49:43.238Z,6.90
2023-02-19T13:51:49.297Z,7.00
2023-02-19T13:53:51.776Z,7.00
2023-02-19T13:55:49.802Z,6.70
2023-02-19T13:57:30.017Z,6.60
2023-02-19T13:59:23.906Z,6.50
2023-02-19T14:00:56.047Z,6.60
2023-02-19T14:02:35.218Z,6.60
2023-02-19T14:04:19.573Z,6.40
2023-02-19T14:06:01.218Z,6.40
2023-02-19T14:07:53.374Z,6.70
2023-02-19T14:09:45.941Z,6.70
2023-02-19T14:11:19.789Z,6.70
2023-02-19T14:12:51.880Z,6.50
2023-02-19T14:14:27.881Z,6.50
2023-02-19T14:16:00.939Z,6.50
2023-02-19T14:17:40.558Z,6.70
2023-02-19T14:19:14.609Z,7.10
2023-02-19T14:20:47.857Z,7.40
2023-02-19T14:23:06.836Z,7.40
2023-02-19T14:24:41.381Z,7.60
2023-02-19T14:26:17.036Z,7.90
2023-02-19T14:27:50.959Z,7.80
2023-02-19T14:29:24.336Z,7.50
2023-02-19T14:31:00.961Z,7.30
2023-02-19T14:32:34.121Z,7.40
2023-02-19T14:34:15.062Z,7.10
2023-02-19T14:35:52.498Z,7.40
2023-02-19T14:37:27.100Z,7.90
2023-02-19T14:39:04.361Z,8.00
2023-02-19T14:40:42.414Z,7.90
2023-02-19T14:42:18.802Z,8.00
2023-02-19T14:43:54.562Z,7.90
2023-02-19T14:45:30.259Z,8.10
2023-02-19T14:47:07.323Z,7.90
2023-02-19T14:48:45.824Z,8.00
2023-02-19T14:50:26.732Z,7.70
2023-02-19T14:52:04.384Z,7.50
2023-02-19T14:53:40.659Z,7.60
2023-02-19T14:55:21.779Z,7.70
2023-02-19T14:56:56.657Z,7.60
2023-02-19T14:58:36.876Z,7.60
2023-02-19T15:00:24.293Z,7.50
2023-02-19T15:01:59.598Z,7.40
2023-02-19T15:03:35.245Z,7.00
2023-02-19T15:05:16.564Z,6.90
2023-02-19T15:06:52.966Z,6.80
2023-02-19T15:08:32.418Z,6.60
2023-02-19T15:10:06.747Z,6.50
2023-02-19T15:11:44.123Z,6.30
2023-02-19T15:13:25.453Z,6.30
2023-02-19T15:15:03.288Z,6.30
2023-02-19T15:16:37.749Z,6.30
2023-02-19T15:18:19.039Z,6.30
2023-02-19T15:19:52.237Z,6.40
2023-02-19T15:21:28.066Z,6.50
2023-02-19T15:23:02.607Z,6.40
2023-02-19T15:24:35.716Z,6.40
2023-02-19T15:26:20.582Z,6.30
2023-02-19T15:27:53.833Z,6.30
2023-02-19T15:29:30.104Z,6.30
2023-02-19T15:31:08.329Z,6.30
2023-02-19T15:32:41.485Z,6.20
2023-02-19T15:34:20.114Z,6.20
2023-02-19T15:35:55.508Z,6.10
2023-02-19T15:37:30.877Z,6.10
2023-02-19T15:39:04.540Z,6.00
2023-02-19T15:40:38.257Z,5.90
2023-02-19T15:42:18.232Z,6.00
2023-02-19T15:43:57.598Z,6.10
2023-02-19T15:45:44.835Z,6.20
2023-02-19T15:47:23.855Z,6.10
2023-02-19T15:49:02.254Z,6.20
2023-02-19T15:50:37.883Z,6.10
2023-02-19T15:52:17.376Z,6.10
2023-02-19T15:53:56.506Z,6.00
2023-02-19T15:55:36.662Z,6.00
2023-02-19T15:57:19.664Z,6.00
2023-02-19T15:58:56.558Z,5.90
2023-02-19T16:00:37.509Z,5.80
2023-02-19T16:02:12.895Z,5.80
2023-02-19T16:03:46.080Z,5.80
2023-02-19T16:05:27.116Z,5.70
2023-02-19T16:07:01.796Z,5.60
2023-02-19T16:08:36.424Z,5.60
2023-02-19T16:10:20.924Z,5.60
2023-02-19T16:11:56.318Z,5.50
2023-02-19T16:13:31.423Z,5.50
2023-02-19T16:15:14.181Z,5.40
2023-02-19T16:16:52.284Z,5.40
2023-02-19T16:18:25.448Z,5.30
2023-02-19T16:20:00.669Z,5.30
2023-02-19T16:21:33.940Z,5.20
2023-02-19T16:23:13.993Z,5.20
2023-02-19T16:24:50.087Z,5.20
2023-02-19T16:26:23.712Z,5.10
2023-02-19T16:27:57.485Z,5.10
2023-02-19T16:29:33.272Z,5.00
2023-02-19T16:31:08.780Z,4.90
2023-02-19T16:32:44.198Z,4.90
2023-02-19T16:34:19.006Z,4.80
2023-02-19T16:35:52.743Z,4.80
2023-02-19T16:37:37.298Z,4.70
2023-02-19T16:39:19.357Z,4.60
2023-02-19T16:41:11.817Z,4.50
2023-02-19T16:43:29.323Z,4.50
2023-02-19T16:45:02.397Z,4.60
2023-02-19T16:46:35.509Z,4.60
2023-02-19T16:48:10.683Z,4.60
2023-02-19T16:49:44.256Z,4.50
2023-02-19T16:51:24.685Z,4.40
2023-02-19T16:52:59.624Z,4.40
2023-02-19T16:54:32.789Z,4.30
2023-02-19T16:56:06.410Z,4.20
2023-02-19T16:57:39.579Z,4.20
2023-02-19T16:59:12.649Z,4.20
2023-02-19T17:00:46.033Z,4.10
2023-02-19T17:02:23.120Z,4.10
2023-02-19T17:04:02.004Z,4.10
2023-02-19T17:05:35.258Z,4.10
2023-02-19T17:07:08.414Z,4.10
2023-02-19T17:08:42.751Z,4.00
2023-02-19T17:10:17.985Z,4.00
2023-02-19T17:11:51.092Z,4.00
2023-02-19T17:13:24.206Z,4.10
2023-02-19T17:14:57.263Z,4.10
2023-02-19T17:16:34.275Z,4.00
2023-02-19T17:18:07.427Z,4.00
2023-02-19T17:19:41.887Z,4.00
2023-02-19T17:21:18.149Z,4.00
2023-02-19T17:22:51.544Z,4.20
2023-02-19T17:24:24.778Z,3.90
2023-02-19T17:25:57.976Z,3.90
2023-02-19T17:27:31.043Z,4.00
2023-02-19T17:29:06.741Z,3.90
2023-02-19T17:30:40.519Z,3.90
2023-02-19T17:32:14.519Z,3.90
2023-02-19T17:33:47.819Z,3.90
2023-02-19T17:35:22.754Z,3.80
2023-02-19T17:36:56.033Z,3.70
2023-02-19T17:38:29.270Z,3.60
2023-02-19T17:40:02.349Z,3.60
2023-02-19T17:41:37.363Z,3.70
2023-02-19T17:43:10.396Z,3.70
2023-02-19T17:44:44.050Z,3.60
2023-02-19T17:46:17.573Z,3.70
2023-02-19T17:47:51.809Z,3.80
2023-02-19T17:49:24.864Z,3.80
2023-02-19T17:50:59.415Z,3.60
2023-02-19T17:52:32.480Z,3.70
2023-02-19T17:54:08.250Z,3.60
2023-02-19T17:55:41.450Z,3.60
2023-02-19T17:57:14.516Z,3.50
2023-02-19T17:58:47.931Z,3.40
2023-02-19T18:00:22.862Z,3.30
2023-02-19T18:01:56.111Z,3.30
2023-02-19T18:03:29.983Z,3.00
2023-02-19T18:05:03.159Z,2.90
2023-02-19T18:06:37.826Z,2.90
2023-02-19T18:08:10.989Z,3.00
2023-02-19T18:09:44.328Z,2.90
2023-02-19T18:11:18.020Z,2.90
2023-02-19T18:23:47.859Z,3.00
2023-02-19T18:25:21.705Z,3.10
2023-02-19T18:26:54.768Z,3.10
2023-02-19T18:28:28.192Z,3.20
2023-02-19T18:30:01.456Z,3.10
2023-02-19T18:31:37.133Z,3.10
2023-02-19T18:33:13.202Z,3.10
2023-02-19T18:34:49.824Z,3.10
2023-02-19T18:36:22.869Z,3.20
2023-02-19T18:37:57.511Z,3.20
2023-02-19T18:39:30.572Z,3.20
2023-02-19T18:41:03.950Z,3.20
2023-02-19T18:42:37.004Z,3.20
2023-02-19T18:44:10.322Z,3.20
2023-02-19T18:45:45.347Z,3.20
2023-02-19T18:47:18.767Z,3.20
2023-02-19T18:48:51.808Z,3.30
2023-02-19T18:50:24.958Z,3.40
2023-02-19T18:51:59.213Z,3.30
2023-02-19T18:53:33.836Z,3.30
2023-02-19T18:55:07.749Z,3.30
2023-02-19T18:56:45.132Z,3.40
2023-02-19T18:58:18.764Z,3.40
2023-02-19T18:59:52.312Z,3.30
2023-02-19T19:01:25.465Z,3.30
2023-02-19T19:02:59.920Z,3.30
2023-02-19T19:04:33.054Z,3.30
2023-02-19T19:06:06.606Z,3.30
2023-02-19T19:07:39.737Z,3.50
2023-02-19T19:09:14.174Z,3.50
2023-02-19T19:10:47.449Z,3.60
2023-02-19T19:12:20.548Z,3.50
2023-02-19T19:13:53.706Z,3.50
2023-02-19T19:15:27.096Z,3.50
2023-02-19T19:17:00.400Z,3.50
2023-02-19T19:18:38.035Z,3.50
2023-02-19T19:20:11.894Z,3.50
2023-02-19T19:21:44.971Z,3.50
2023-02-19T19:23:18.109Z,3.60
2023-02-19T19:24:52.699Z,3.60
2023-02-19T19:26:25.836Z,3.60
2023-02-19T19:27:58.934Z,3.60
2023-02-19T19:29:32.042Z,3.60
2023-02-19T19:31:05.586Z,3.60
2023-02-19T19:32:38.975Z,3.50
2023-02-19T19:34:13.234Z,3.40
2023-02-19T19:35:46.490Z,3.40
2023-02-19T19:37:19.819Z,3.30
2023-02-19T19:38:52.873Z,3.30
2023-02-19T19:40:27.700Z,3.10
2023-02-19T19:42:00.803Z,3.00
2023-02-19T19:43:34.382Z,2.90
2023-02-19T19:45:08.436Z,2.80
2023-02-19T19:46:46.135Z,2.70
2023-02-19T19:48:19.222Z,2.60
2023-02-19T19:49:52.465Z,2.60
2023-02-19T19:51:25.559Z,2.50
2023-02-19T19:52:58.956Z,2.40
2023-02-19T19:54:32.026Z,2.30
2023-02-19T19:56:07.265Z,2.20
2023-02-19T19:57:40.969Z,2.10
2023-02-19T19:59:15.670Z,1.90
2023-02-19T20:00:48.782Z,2.10
2023-02-19T20:02:22.776Z,2.10
2023-02-19T20:03:55.847Z,2.10
2023-02-19T20:05:28.948Z,2.00
2023-02-19T20:07:02.268Z,1.90
2023-02-19T20:08:35.481Z,1.80
2023-02-19T20:10:11.108Z,1.70
2023-02-19T20:11:51.425Z,1.50
2023-02-19T20:13:24.715Z,1.40
2023-02-19T20:14:57.836Z,1.40
2023-02-19T20:16:30.894Z,1.40
2023-02-19T20:18:04.343Z,1.40
2023-02-19T20:19:37.475Z,1.30
2023-02-19T20:21:11.910Z,1.30
2023-02-19T20:22:45.258Z,1.30
2023-02-19T20:24:21.034Z,1.30
2023-02-19T20:25:54.099Z,1.30
2023-02-19T20:27:28.532Z,1.30
2023-02-19T20:29:04.297Z,1.30
2023-02-19T20:30:37.645Z,1.20
2023-02-19T20:32:10.790Z,1.20
2023-02-19T20:33:43.873Z,1.10
2023-02-19T20:35:17.251Z,1.10
2023-02-19T20:36:50.825Z,1.00
2023-02-19T20:38:24.020Z,1.00
2023-02-19T20:39:57.077Z,0.90
2023-02-19T20:41:30.172Z,0.80
2023-02-19T20:43:04.690Z,0.70
2023-02-19T20:44:37.771Z,0.60
2023-02-19T20:46:11.314Z,0.60
2023-02-19T20:47:44.652Z,0.60
2023-02-19T20:49:20.105Z,0.50
2023-02-19T20:50:59.147Z,0.40
2023-02-19T20:52:32.222Z,0.30
2023-02-19T20:54:05.380Z,0.30
2023-02-19T20:55:38.780Z,0.20
2023-02-19T20:57:12.681Z,0.20
2023-02-19T20:58:47.103Z,0.20
2023-02-19T21:00:21.308Z,0.20
2023-02-19T21:01:54.643Z,0.20
2023-02-19T21:03:28.330Z,0.20
2023-02-19T21:05:01.998Z,0.20
2023-02-19T21:06:35.142Z,0.20
2023-02-19T21:08:08.273Z,0.20
2023-02-19T21:09:41.494Z,0.10
2023-02-19T21:11:14.565Z,0.10
2023-02-19T21:12:48.057Z,0.10
2023-02-19T21:14:22.526Z,0.00
2023-02-19T21:15:55.627Z,0.00
2023-02-19T21:17:28.690Z,-0.10
2023-02-19T21:19:01.874Z,-0.10
2023-02-19T21:20:35.139Z,0.10
2023-02-19T21:22:08.416Z,0.30
2023-02-19T21:23:41.508Z,0.40
2023-02-19T21:25:14.628Z,0.60
2023-02-19T21:26:48.153Z,1.00
2023-02-19T21:28:21.212Z,1.50
2023-02-19T21:29:55.643Z,1.60
2023-02-19T21:31:37.262Z,1.80
2023-02-19T21:33:10.397Z,1.80
2023-02-19T21:34:43.695Z,1.80
2023-02-19T21:36:19.529Z,1.80
2023-02-19T21:37:52.593Z,1.80
2023-02-19T21:39:27.454Z,1.90
2023-02-19T21:41:00.668Z,1.90
2023-02-19T21:42:34.136Z,1.80
2023-02-19T21:44:07.232Z,1.80
2023-02-19T21:45:42.686Z,1.80
2023-02-19T21:47:15.902Z,1.80
2023-02-19T21:48:49.655Z,1.80
2023-02-19T21:50:23.120Z,1.70
2023-02-19T21:51:56.321Z,1.70
2023-02-19T21:53:29.432Z,1.70
2023-02-19T21:55:02.611Z,1.70
2023-02-19T21:56:37.060Z,1.70
2023-02-19T21:58:10.536Z,1.70
2023-02-19T21:59:43.644Z,1.70
2023-02-19T22:01:21.871Z,1.80
2023-02-19T22:02:55.028Z,1.90
2023-02-19T22:04:28.140Z,2.00
2023-02-19T22:06:03.131Z,2.00
2023-02-19T22:07:36.230Z,2.10
2023-02-19T22:09:10.023Z,2.10
2023-02-19T22:10:43.110Z,2.20
2023-02-19T22:12:16.307Z,2.00
2023-02-19T22:13:49.435Z,2.00
2023-02-19T22:15:22.501Z,2.00
2023-02-19T22:16:56.989Z,2.00
2023-02-19T22:18:31.100Z,1.90
2023-02-19T22:20:04.230Z,1.90
2023-02-19T22:21:36.367Z,1.80
2023-02-19T22:23:09.398Z,1.80
2023-02-19T22:24:42.540Z,1.80
2023-02-19T22:26:19.946Z,1.70
2023-02-19T22:27:53.048Z,1.60
2023-02-19T22:29:26.578Z,1.60
2023-02-19T22:30:59.626Z,1.50
2023-02-19T22:32:34.207Z,1.50
2023-02-19T22:34:07.960Z,1.50
2023-02-19T22:35:41.076Z,1.50
2023-02-19T22:37:14.149Z,1.60
2023-02-19T22:38:47.359Z,1.70
2023-02-19T22:40:20.419Z,1.60
2023-02-19T22:41:53.642Z,1.50
2023-02-19T22:43:26.713Z,1.50
2023-02-19T22:44:59.812Z,1.50
2023-02-19T22:46:32.861Z,1.50
2023-02-19T22:48:07.384Z,1.50
2023-02-19T22:49:42.510Z,1.50
2023-02-19T22:51:18.893Z,1.50
2023-02-19T22:52:54.789Z,1.40
2023-02-19T22:54:27.880Z,1.40
2023-02-19T22:55:59.971Z,1.40
2023-02-19T22:57:33.058Z,1.50
2023-02-19T22:59:06.111Z,1.60
2023-02-19T23:00:39.197Z,1.60
2023-02-19T23:02:12.457Z,1.70
2023-02-19T23:03:52.074Z,1.70
2023-02-19T23:05:25.501Z,1.70
2023-02-19T23:06:58.695Z,1.80
2023-02-19T23:08:31.761Z,1.80
2023-02-19T23:10:04.997Z,1.80
2023-02-19T23:11:39.924Z,1.80
2023-02-19T23:13:13.041Z,1.80
2023-02-19T23:14:47.730Z,1.90
2023-02-19T23:16:21.276Z,1.90
2023-02-19T23:17:54.397Z,1.80
2023-02-19T23:19:28.979Z,1.90
2023-02-19T23:21:02.244Z,1.90
2023-02-19T23:22:35.299Z,2.00
2023-02-19T23:24:08.659Z,2.10
2023-02-19T23:25:41.800Z,2.20
2023-02-19T23:27:14.968Z,2.20
2023-02-19T23:28:47.149Z,2.20
2023-02-19T23:30:21.046Z,2.30
2023-02-19T23:31:54.289Z,2.30
2023-02-19T23:33:27.436Z,2.30
2023-02-19T23:35:00.962Z,2.30
2023-02-19T23:36:34.081Z,2.20
2023-02-19T23:38:07.187Z,2.30
2023-02-19T23:39:40.296Z,2.20
2023-02-19T23:41:15.095Z,2.20
2023-02-19T23:42:48.212Z,2.20
2023-02-19T23:44:21.880Z,2.20
2023-02-19T23:45:55.136Z,2.20
2023-02-19T23:47:30.574Z,2.20
2023-02-19T23:49:03.852Z,2.20
2023-02-19T23:50:37.398Z,2.20
2023-02-19T23:52:10.478Z,2.20
2023-02-19T23:53:43.584Z,2.30
2023-02-19T23:55:16.839Z,2.20
2023-02-19T23:56:50.041Z,2.20
2023-02-19T23:58:23.101Z,2.20
2023-02-19T23:59:56.310Z,2.20
